sensor_id;sensor_type;location;lat;lon;timestamp;pressure;altitude;pressure_sealevel;temperature;humidity
17607;BME280;8922;52.240;20.980;2023-02-18T00:01:54;99138.66;;;7.98;69.84
17607;BME280;8922;52.240;20.980;2023-02-18T00:04:24;99145.59;;;7.93;70.33
17607;BME280;8922;52.240;20.980;2023-02-18T00:06:54;99159.34;;;7.89;69.75
17607;BME280;8922;52.240;20.980;2023-02-18T00:09:22;99152.59;;;7.82;70.43
17607;BME280;8922;52.240;20.980;2023-02-18T00:11:51;99165.50;;;7.77;70.33
17607;BME280;8922;52.240;20.980;2023-02-18T00:14:19;99175.00;;;7.70;71.08
17607;BME280;8922;52.240;20.980;2023-02-18T00:16:50;99167.38;;;7.64;71.11
17607;BME280;8922;52.240;20.980;2023-02-18T00:19:19;99178.53;;;7.60;70.52
17607;BME280;8922;52.240;20.980;2023-02-18T00:21:49;99181.13;;;7.57;68.40
17607;BME280;8922;52.240;20.980;2023-02-18T00:24:18;99189.72;;;7.55;69.12
17607;BME280;8922;52.240;20.980;2023-02-18T00:26:49;99182.09;;;7.50;68.68
17607;BME280;8922;52.240;20.980;2023-02-18T00:29:19;99194.94;;;7.47;67.91
17607;BME280;8922;52.240;20.980;2023-02-18T00:31:48;99196.69;;;7.43;66.68
17607;BME280;8922;52.240;20.980;2023-02-18T00:34:17;99189.06;;;7.39;67.41
17607;BME280;8922;52.240;20.980;2023-02-18T00:36:45;99199.34;;;7.36;67.02
17607;BME280;8922;52.240;20.980;2023-02-18T00:39:15;99200.25;;;7.32;66.70
17607;BME280;8922;52.240;20.980;2023-02-18T00:41:44;99197.69;;;7.32;66.96
17607;BME280;8922;52.240;20.980;2023-02-18T00:44:14;99204.53;;;7.31;65.82
17607;BME280;8922;52.240;20.980;2023-02-18T00:46:45;99208.84;;;7.28;65.39
17607;BME280;8922;52.240;20.980;2023-02-18T00:49:16;99200.34;;;7.25;65.96
17607;BME280;8922;52.240;20.980;2023-02-18T00:51:45;99191.78;;;7.25;65.03
17607;BME280;8922;52.240;20.980;2023-02-18T00:54:15;99190.13;;;7.22;64.35
17607;BME280;8922;52.240;20.980;2023-02-18T00:56:43;99196.09;;;7.21;64.38
17607;BME280;8922;52.240;20.980;2023-02-18T00:59:11;99202.97;;;7.19;63.73
17607;BME280;8922;52.240;20.980;2023-02-18T01:01:40;99219.22;;;7.18;63.11
17607;BME280;8922;52.240;20.980;2023-02-18T01:04:08;99192.78;;;7.13;63.10
17607;BME280;8922;52.240;20.980;2023-02-18T01:06:37;99208.16;;;7.13;62.80
17607;BME280;8922;52.240;20.980;2023-02-18T01:09:06;99198.75;;;7.14;62.39
17607;BME280;8922;52.240;20.980;2023-02-18T01:11:36;99208.16;;;7.13;63.13
17607;BME280;8922;52.240;20.980;2023-02-18T01:14:06;99216.72;;;7.12;62.58
17607;BME280;8922;52.240;20.980;2023-02-18T01:16:35;99212.47;;;7.11;62.16
17607;BME280;8922;52.240;20.980;2023-02-18T01:19:03;99208.22;;;7.09;62.76
17607;BME280;8922;52.240;20.980;2023-02-18T01:21:31;99211.59;;;7.12;62.28
17607;BME280;8922;52.240;20.980;2023-02-18T01:24:00;99217.63;;;7.05;62.89
17607;BME280;8922;52.240;20.980;2023-02-18T01:26:30;99224.41;;;7.09;62.93
17607;BME280;8922;52.240;20.980;2023-02-18T01:29:00;99215.94;;;7.06;62.66
17607;BME280;8922;52.240;20.980;2023-02-18T01:31:28;99209.09;;;7.06;62.06
17607;BME280;8922;52.240;20.980;2023-02-18T01:33:57;99221.06;;;7.04;62.21
17607;BME280;8922;52.240;20.980;2023-02-18T01:36:26;99215.06;;;7.05;61.56
17607;BME280;8922;52.240;20.980;2023-02-18T01:38:54;99198.03;;;7.04;61.58
17607;BME280;8922;52.240;20.980;2023-02-18T01:41:22;99204.00;;;7.03;61.38
17607;BME280;8922;52.240;20.980;2023-02-18T01:44:12;99198.88;;;7.03;62.17
17607;BME280;8922;52.240;20.980;2023-02-18T01:46:40;99199.75;;;7.02;62.10
17607;BME280;8922;52.240;20.980;2023-02-18T01:49:11;99199.78;;;7.00;62.54
17607;BME280;8922;52.240;20.980;2023-02-18T01:51:45;99199.81;;;6.96;62.44
17607;BME280;8922;52.240;20.980;2023-02-18T01:54:18;99198.94;;;6.95;62.57
17607;BME280;8922;52.240;20.980;2023-02-18T01:56:55;99181.06;;;6.94;62.31
17607;BME280;8922;52.240;20.980;2023-02-18T01:59:29;99180.22;;;6.92;62.56
17607;BME280;8922;52.240;20.980;2023-02-18T02:01:58;99185.31;;;6.92;62.86
17607;BME280;8922;52.240;20.980;2023-02-18T02:04:27;99188.75;;;6.92;63.40
17607;BME280;8922;52.240;20.980;2023-02-18T02:06:56;99187.03;;;6.91;63.08
17607;BME280;8922;52.240;20.980;2023-02-18T02:09:26;99181.94;;;6.91;62.60
17607;BME280;8922;52.240;20.980;2023-02-18T02:12:37;99179.41;;;6.90;62.59
17607;BME280;8922;52.240;20.980;2023-02-18T02:15:37;99177.72;;;6.89;63.10
17607;BME280;8922;52.240;20.980;2023-02-18T02:18:35;99171.75;;;6.85;62.62
17607;BME280;8922;52.240;20.980;2023-02-18T02:21:37;99172.66;;;6.80;63.58
17607;BME280;8922;52.240;20.980;2023-02-18T02:28:02;99167.66;;;6.70;63.41
17607;BME280;8922;52.240;20.980;2023-02-18T02:31:21;99163.47;;;6.63;62.58
17607;BME280;8922;52.240;20.980;2023-02-18T02:34:34;99166.91;;;6.59;62.25
17607;BME280;8922;52.240;20.980;2023-02-18T02:37:13;99157.50;;;6.58;62.81
17607;BME280;8922;52.240;20.980;2023-02-18T02:39:58;99185.72;;;6.53;63.24
17607;BME280;8922;52.240;20.980;2023-02-18T02:42:43;99190.00;;;6.50;62.69
17607;BME280;8922;52.240;20.980;2023-02-18T02:45:23;99165.28;;;6.49;62.60
17607;BME280;8922;52.240;20.980;2023-02-18T02:47:59;99190.03;;;6.47;62.90
17607;BME280;8922;52.240;20.980;2023-02-18T02:50:39;99174.69;;;6.48;62.70
17607;BME280;8922;52.240;20.980;2023-02-18T02:53:15;99202.81;;;6.47;62.76
17607;BME280;8922;52.240;20.980;2023-02-18T02:55:46;99201.16;;;6.46;62.70
17607;BME280;8922;52.240;20.980;2023-02-18T02:58:17;99210.53;;;6.44;63.45
17607;BME280;8922;52.240;20.980;2023-02-18T03:01:06;99213.97;;;6.43;63.00
17607;BME280;8922;52.240;20.980;2023-02-18T03:04:18;99196.03;;;6.43;62.76
17607;BME280;8922;52.240;20.980;2023-02-18T03:07:26;99215.69;;;6.41;63.28
17607;BME280;8922;52.240;20.980;2023-02-18T03:10:23;99215.72;;;6.38;63.07
17607;BME280;8922;52.240;20.980;2023-02-18T03:13:03;99218.28;;;6.38;63.95
17607;BME280;8922;52.240;20.980;2023-02-18T03:15:40;99215.72;;;6.36;63.69
17607;BME280;8922;52.240;20.980;2023-02-18T03:18:17;99239.63;;;6.34;63.84
17607;BME280;8922;52.240;20.980;2023-02-18T03:20:52;99219.16;;;6.34;63.93
17607;BME280;8922;52.240;20.980;2023-02-18T03:23:28;99219.19;;;6.31;63.34
17607;BME280;8922;52.240;20.980;2023-02-18T03:26:00;99226.88;;;6.27;63.67
17607;BME280;8922;52.240;20.980;2023-02-18T03:28:31;99219.22;;;6.24;63.46
17607;BME280;8922;52.240;20.980;2023-02-18T03:31:06;99222.66;;;6.23;63.98
17607;BME280;8922;52.240;20.980;2023-02-18T03:33:42;99233.72;;;6.24;63.70
17607;BME280;8922;52.240;20.980;2023-02-18T03:36:12;99249.94;;;6.21;63.37
17607;BME280;8922;52.240;20.980;2023-02-18T03:38:47;99241.44;;;6.18;63.00
17607;BME280;8922;52.240;20.980;2023-02-18T03:41:18;99241.44;;;6.16;63.54
17607;BME280;8922;52.240;20.980;2023-02-18T03:43:51;99238.88;;;6.16;63.04
17607;BME280;8922;52.240;20.980;2023-02-18T03:46:19;99247.44;;;6.15;63.43
17607;BME280;8922;52.240;20.980;2023-02-18T03:48:48;99246.59;;;6.13;64.03
17607;BME280;8922;52.240;20.980;2023-02-18T03:51:17;99248.28;;;6.11;63.61
17607;BME280;8922;52.240;20.980;2023-02-18T03:53:47;99234.66;;;6.12;63.57
17607;BME280;8922;52.240;20.980;2023-02-18T03:56:16;99250.00;;;6.12;62.91
17607;BME280;8922;52.240;20.980;2023-02-18T03:58:45;99223.56;;;6.10;62.82
17607;BME280;8922;52.240;20.980;2023-02-18T04:01:14;99259.41;;;6.05;63.52
17607;BME280;8922;52.240;20.980;2023-02-18T04:03:43;99250.88;;;6.08;63.42
17607;BME280;8922;52.240;20.980;2023-02-18T04:06:12;99267.94;;;6.06;63.41
17607;BME280;8922;52.240;20.980;2023-02-18T04:08:40;99267.94;;;6.03;63.31
17607;BME280;8922;52.240;20.980;2023-02-18T04:11:10;99275.63;;;6.00;63.78
17607;BME280;8922;52.240;20.980;2023-02-18T04:13:39;99265.44;;;5.97;63.76
17607;BME280;8922;52.240;20.980;2023-02-18T04:16:08;99261.16;;;5.99;63.61
17607;BME280;8922;52.240;20.980;2023-02-18T04:18:37;99270.56;;;5.97;63.57
17607;BME280;8922;52.240;20.980;2023-02-18T04:21:05;99267.16;;;5.95;63.80
17607;BME280;8922;52.240;20.980;2023-02-18T04:23:34;99258.63;;;5.94;63.72
17607;BME280;8922;52.240;20.980;2023-02-18T04:26:03;99252.66;;;5.94;63.84
17607;BME280;8922;52.240;20.980;2023-02-18T04:28:33;99270.53;;;5.95;64.04
17607;BME280;8922;52.240;20.980;2023-02-18T04:31:02;99267.16;;;5.93;63.73
17607;BME280;8922;52.240;20.980;2023-02-18T04:33:31;99270.53;;;5.91;64.44
17607;BME280;8922;52.240;20.980;2023-02-18T04:35:59;99281.63;;;5.93;63.39
17607;BME280;8922;52.240;20.980;2023-02-18T04:38:28;99269.69;;;5.92;63.64
17607;BME280;8922;52.240;20.980;2023-02-18T04:40:56;99275.69;;;5.89;63.70
17607;BME280;8922;52.240;20.980;2023-02-18T04:43:25;99273.97;;;5.88;63.68
17607;BME280;8922;52.240;20.980;2023-02-18T04:45:55;99285.91;;;5.85;63.71
17607;BME280;8922;52.240;20.980;2023-02-18T04:48:24;99269.72;;;5.84;63.84
17607;BME280;8922;52.240;20.980;2023-02-18T04:50:52;99271.47;;;5.82;63.85
17607;BME280;8922;52.240;20.980;2023-02-18T04:53:21;99265.47;;;5.81;63.80
17607;BME280;8922;52.240;20.980;2023-02-18T04:55:50;99265.50;;;5.78;63.77
17607;BME280;8922;52.240;20.980;2023-02-18T04:58:20;99260.41;;;5.75;63.87
17607;BME280;8922;52.240;20.980;2023-02-18T05:00:51;99279.13;;;5.76;63.92
17607;BME280;8922;52.240;20.980;2023-02-18T05:03:21;99271.47;;;5.76;63.76
17607;BME280;8922;52.240;20.980;2023-02-18T05:05:50;99279.16;;;5.74;63.96
17607;BME280;8922;52.240;20.980;2023-02-18T05:08:19;99305.56;;;5.72;63.92
17607;BME280;8922;52.240;20.980;2023-02-18T05:10:47;99289.38;;;5.71;63.92
17607;BME280;8922;52.240;20.980;2023-02-18T05:13:16;99295.34;;;5.70;63.57
17607;BME280;8922;52.240;20.980;2023-02-18T05:15:44;99306.44;;;5.71;63.74
17607;BME280;8922;52.240;20.980;2023-02-18T05:18:13;99278.31;;;5.69;63.66
17607;BME280;8922;52.240;20.980;2023-02-18T05:20:44;99285.16;;;5.67;63.64
17607;BME280;8922;52.240;20.980;2023-02-18T05:23:13;99299.63;;;5.65;64.04
17607;BME280;8922;52.240;20.980;2023-02-18T05:25:42;99300.50;;;5.64;64.01
17607;BME280;8922;52.240;20.980;2023-02-18T05:28:10;99298.78;;;5.63;64.35
17607;BME280;8922;52.240;20.980;2023-02-18T05:30:39;99296.22;;;5.63;63.88
17607;BME280;8922;52.240;20.980;2023-02-18T05:33:08;99307.31;;;5.61;63.79
17607;BME280;8922;52.240;20.980;2023-02-18T05:35:36;99295.41;;;5.58;63.94
17607;BME280;8922;52.240;20.980;2023-02-18T05:38:06;99313.25;;;5.60;64.11
17607;BME280;8922;52.240;20.980;2023-02-18T05:40:36;99315.84;;;5.58;63.99
17607;BME280;8922;52.240;20.980;2023-02-18T05:43:04;99323.50;;;5.55;63.96
17607;BME280;8922;52.240;20.980;2023-02-18T05:45:33;99326.06;;;5.55;64.32
17607;BME280;8922;52.240;20.980;2023-02-18T05:48:02;99320.94;;;5.55;64.41
17607;BME280;8922;52.240;20.980;2023-02-18T05:50:31;99317.53;;;5.54;64.59
17607;BME280;8922;52.240;20.980;2023-02-18T05:52:59;99319.28;;;5.52;64.48
17607;BME280;8922;52.240;20.980;2023-02-18T05:55:29;99319.28;;;5.52;64.44
17607;BME280;8922;52.240;20.980;2023-02-18T05:57:59;99322.66;;;5.51;64.82
17607;BME280;8922;52.240;20.980;2023-02-18T06:00:27;99332.06;;;5.52;64.61
17607;BME280;8922;52.240;20.980;2023-02-18T06:02:58;99334.59;;;5.54;64.76
17607;BME280;8922;52.240;20.980;2023-02-18T06:05:27;99329.47;;;5.55;64.93
17607;BME280;8922;52.240;20.980;2023-02-18T06:07:55;99333.72;;;5.55;64.75
17607;BME280;8922;52.240;20.980;2023-02-18T06:10:24;99330.34;;;5.56;64.83
17607;BME280;8922;52.240;20.980;2023-02-18T06:12:54;99328.63;;;5.55;64.49
17607;BME280;8922;52.240;20.980;2023-02-18T06:15:23;99329.47;;;5.55;64.40
17607;BME280;8922;52.240;20.980;2023-02-18T06:17:51;99349.91;;;5.57;64.49
17607;BME280;8922;52.240;20.980;2023-02-18T06:20:20;99347.38;;;5.60;63.99
17607;BME280;8922;52.240;20.980;2023-02-18T06:22:48;99351.59;;;5.60;63.90
17607;BME280;8922;52.240;20.980;2023-02-18T06:25:17;99344.78;;;5.58;63.70
17607;BME280;8922;52.240;20.980;2023-02-18T06:27:45;99343.94;;;5.61;63.89
17607;BME280;8922;52.240;20.980;2023-02-18T06:30:16;99349.06;;;5.61;63.97
17607;BME280;8922;52.240;20.980;2023-02-18T06:32:45;99359.28;;;5.61;63.84
17607;BME280;8922;52.240;20.980;2023-02-18T06:35:13;99366.91;;;5.63;63.84
17607;BME280;8922;52.240;20.980;2023-02-18T06:37:42;99357.53;;;5.63;63.30
17607;BME280;8922;52.240;20.980;2023-02-18T06:40:11;99375.44;;;5.63;63.33
17607;BME280;8922;52.240;20.980;2023-02-18T06:42:40;99380.56;;;5.65;63.20
17607;BME280;8922;52.240;20.980;2023-02-18T06:45:09;99357.53;;;5.63;63.55
17607;BME280;8922;52.240;20.980;2023-02-18T06:47:39;99368.66;;;5.64;63.69
17607;BME280;8922;52.240;20.980;2023-02-18T06:50:08;99389.06;;;5.65;63.36
17607;BME280;8922;52.240;20.980;2023-02-18T06:52:37;99386.53;;;5.65;63.32
17607;BME280;8922;52.240;20.980;2023-02-18T06:55:07;99386.53;;;5.65;63.84
17607;BME280;8922;52.240;20.980;2023-02-18T06:57:36;99393.34;;;5.65;63.62
17607;BME280;8922;52.240;20.980;2023-02-18T07:00:06;99395.06;;;5.64;63.31
17607;BME280;8922;52.240;20.980;2023-02-18T07:02:35;99400.16;;;5.67;63.24
17607;BME280;8922;52.240;20.980;2023-02-18T07:05:06;99394.16;;;5.70;63.47
17607;BME280;8922;52.240;20.980;2023-02-18T07:07:34;99396.72;;;5.70;63.21
17607;BME280;8922;52.240;20.980;2023-02-18T07:10:04;99380.56;;;5.71;63.23
17607;BME280;8922;52.240;20.980;2023-02-18T07:12:33;99392.47;;;5.76;63.17
17607;BME280;8922;52.240;20.980;2023-02-18T07:15:02;99384.78;;;5.79;62.86
17607;BME280;8922;52.240;20.980;2023-02-18T07:17:31;99388.16;;;5.88;62.86
17607;BME280;8922;52.240;20.980;2023-02-18T07:19:59;99395.84;;;5.94;62.29
17607;BME280;8922;52.240;20.980;2023-02-18T07:22:30;99389.00;;;5.96;62.08
17607;BME280;8922;52.240;20.980;2023-02-18T07:24:58;99386.47;;;5.97;62.37
17607;BME280;8922;52.240;20.980;2023-02-18T07:27:27;99383.06;;;5.97;62.46
17607;BME280;8922;52.240;20.980;2023-02-18T07:29:55;99390.72;;;6.01;61.89
17607;BME280;8922;52.240;20.980;2023-02-18T07:32:24;99401.78;;;6.05;62.56
17607;BME280;8922;52.240;20.980;2023-02-18T07:34:53;99385.59;;;6.08;61.50
17607;BME280;8922;52.240;20.980;2023-02-18T07:37:21;99394.09;;;6.08;62.05
17607;BME280;8922;52.240;20.980;2023-02-18T07:39:51;99390.63;;;6.20;62.02
17607;BME280;8922;52.240;20.980;2023-02-18T07:42:20;99381.22;;;6.28;61.42
17607;BME280;8922;52.240;20.980;2023-02-18T07:44:49;99381.16;;;6.39;61.64
17607;BME280;8922;52.240;20.980;2023-02-18T07:47:18;99391.31;;;6.54;60.75
17607;BME280;8922;52.240;20.980;2023-02-18T07:49:47;99396.38;;;6.59;60.97
17607;BME280;8922;52.240;20.980;2023-02-18T07:52:15;99402.38;;;6.61;60.56
17607;BME280;8922;52.240;20.980;2023-02-18T07:54:44;99399.75;;;6.68;59.91
17607;BME280;8922;52.240;20.980;2023-02-18T07:57:14;99398.88;;;6.74;60.03
17607;BME280;8922;52.240;20.980;2023-02-18T07:59:43;99391.19;;;6.75;59.30
17607;BME280;8922;52.240;20.980;2023-02-18T08:02:17;99401.41;;;6.75;58.78
17607;BME280;8922;52.240;20.980;2023-02-18T08:04:48;99410.81;;;6.75;58.98
17607;BME280;8922;52.240;20.980;2023-02-18T08:07:19;99392.88;;;6.73;59.03
17607;BME280;8922;52.240;20.980;2023-02-18T08:09:49;99402.31;;;6.68;58.22
17607;BME280;8922;52.240;20.980;2023-02-18T08:12:19;99404.88;;;6.65;58.95
17607;BME280;8922;52.240;20.980;2023-02-18T08:14:48;99404.91;;;6.62;58.46
17607;BME280;8922;52.240;20.980;2023-02-18T08:17:17;99412.56;;;6.65;59.68
17607;BME280;8922;52.240;20.980;2023-02-18T08:19:45;99411.69;;;6.66;59.62
17607;BME280;8922;52.240;20.980;2023-02-18T08:22:14;99409.97;;;6.70;59.93
17607;BME280;8922;52.240;20.980;2023-02-18T08:24:43;99415.94;;;6.73;59.85
17607;BME280;8922;52.240;20.980;2023-02-18T08:27:12;99413.34;;;6.76;58.86
17607;BME280;8922;52.240;20.980;2023-02-18T08:29:42;99413.34;;;6.80;58.43
17607;BME280;8922;52.240;20.980;2023-02-18T08:32:10;99420.16;;;6.85;59.42
17607;BME280;8922;52.240;20.980;2023-02-18T08:34:39;99410.69;;;6.92;58.75
17607;BME280;8922;52.240;20.980;2023-02-18T08:37:08;99406.41;;;6.97;59.01
17607;BME280;8922;52.240;20.980;2023-02-18T08:39:38;99402.94;;;7.04;58.35
17607;BME280;8922;52.240;20.980;2023-02-18T08:42:07;99408.88;;;7.08;57.72
17607;BME280;8922;52.240;20.980;2023-02-18T08:44:36;99405.44;;;7.10;57.21
17607;BME280;8922;52.240;20.980;2023-02-18T08:47:06;99416.53;;;7.09;57.98
17607;BME280;8922;52.240;20.980;2023-02-18T08:49:54;99419.09;;;7.09;58.51
17607;BME280;8922;52.240;20.980;2023-02-18T08:52:23;99430.19;;;7.11;58.08
17607;BME280;8922;52.240;20.980;2023-02-18T08:54:52;99432.75;;;7.14;57.63
17607;BME280;8922;52.240;20.980;2023-02-18T08:57:21;99421.63;;;7.18;57.50
17607;BME280;8922;52.240;20.980;2023-02-18T08:59:49;99423.28;;;7.21;56.53
17607;BME280;8922;52.240;20.980;2023-02-18T09:02:20;99434.38;;;7.23;56.52
17607;BME280;8922;52.240;20.980;2023-02-18T09:04:48;99430.91;;;7.29;56.35
17607;BME280;8922;52.240;20.980;2023-02-18T09:07:18;99434.25;;;7.38;55.09
17607;BME280;8922;52.240;20.980;2023-02-18T09:09:47;99435.03;;;7.43;56.01
17607;BME280;8922;52.240;20.980;2023-02-18T09:12:15;99426.50;;;7.46;55.08
17607;BME280;8922;52.240;20.980;2023-02-18T09:14:46;99442.75;;;7.43;55.76
17607;BME280;8922;52.240;20.980;2023-02-18T09:17:15;99441.84;;;7.49;56.10
17607;BME280;8922;52.240;20.980;2023-02-18T09:19:45;99448.66;;;7.53;55.79
17607;BME280;8922;52.240;20.980;2023-02-18T09:22:15;99453.81;;;7.52;55.21
17607;BME280;8922;52.240;20.980;2023-02-18T09:24:46;99452.06;;;7.55;55.01
17607;BME280;8922;52.240;20.980;2023-02-18T09:27:14;99459.69;;;7.63;55.45
17607;BME280;8922;52.240;20.980;2023-02-18T09:29:45;99466.38;;;7.76;54.84
17607;BME280;8922;52.240;20.980;2023-02-18T09:32:14;99479.16;;;7.82;53.38
17607;BME280;8922;52.240;20.980;2023-02-18T09:35:00;99459.50;;;7.81;52.90
17607;BME280;8922;52.240;20.980;2023-02-18T09:37:28;99464.56;;;7.87;53.44
17607;BME280;8922;52.240;20.980;2023-02-18T09:39:57;99465.44;;;7.86;53.11
17607;BME280;8922;52.240;20.980;2023-02-18T09:42:31;99459.50;;;7.80;52.52
17607;BME280;8922;52.240;20.980;2023-02-18T09:45:04;99468.09;;;7.75;52.87
17607;BME280;8922;52.240;20.980;2023-02-18T09:47:36;99464.72;;;7.70;52.20
17607;BME280;8922;52.240;20.980;2023-02-18T09:50:12;99475.84;;;7.69;51.82
17607;BME280;8922;52.240;20.980;2023-02-18T09:52:43;99477.56;;;7.69;52.01
17607;BME280;8922;52.240;20.980;2023-02-18T09:55:21;99484.41;;;7.68;53.08
17607;BME280;8922;52.240;20.980;2023-02-18T09:57:53;99493.81;;;7.65;52.06
17607;BME280;8922;52.240;20.980;2023-02-18T10:00:29;99490.47;;;7.60;53.25
17607;BME280;8922;52.240;20.980;2023-02-18T10:03:03;99480.22;;;7.58;52.76
17607;BME280;8922;52.240;20.980;2023-02-18T10:05:35;99486.22;;;7.54;54.00
17607;BME280;8922;52.240;20.980;2023-02-18T10:08:12;99492.25;;;7.47;53.73
17607;BME280;8922;52.240;20.980;2023-02-18T10:10:47;99500.84;;;7.40;54.14
17607;BME280;8922;52.240;20.980;2023-02-18T10:13:18;99505.16;;;7.36;53.87
17607;BME280;8922;52.240;20.980;2023-02-18T10:15:49;99497.47;;;7.38;54.43
17607;BME280;8922;52.240;20.980;2023-02-18T10:18:25;99501.78;;;7.34;54.12
17607;BME280;8922;52.240;20.980;2023-02-18T10:21:10;99505.16;;;7.36;54.37
17607;BME280;8922;52.240;20.980;2023-02-18T10:23:42;99498.25;;;7.49;53.74
17607;BME280;8922;52.240;20.980;2023-02-18T10:26:16;99500.66;;;7.67;53.23
17607;BME280;8922;52.240;20.980;2023-02-18T10:28:45;99497.22;;;7.68;52.89
17607;BME280;8922;52.240;20.980;2023-02-18T10:31:18;99494.63;;;7.71;52.93
17607;BME280;8922;52.240;20.980;2023-02-18T10:33:56;99491.03;;;7.91;52.98
17607;BME280;8922;52.240;20.980;2023-02-18T10:36:35;99490.94;;;8.03;51.98
17607;BME280;8922;52.240;20.980;2023-02-18T10:39:33;99479.53;;;8.29;51.39
17607;BME280;8922;52.240;20.980;2023-02-18T10:42:23;99476.72;;;8.50;51.33
17607;BME280;8922;52.240;20.980;2023-02-18T10:45:13;99487.69;;;8.61;50.86
17607;BME280;8922;52.240;20.980;2023-02-18T10:47:56;99479.06;;;8.68;50.73
17607;BME280;8922;52.240;20.980;2023-02-18T10:50:34;99466.13;;;8.75;49.75
17607;BME280;8922;52.240;20.980;2023-02-18T10:53:12;99462.66;;;8.79;50.87
17607;BME280;8922;52.240;20.980;2023-02-18T10:55:44;99451.53;;;8.78;49.44
17607;BME280;8922;52.240;20.980;2023-02-18T10:58:30;99453.41;;;8.67;50.29
17607;BME280;8922;52.240;20.980;2023-02-18T11:01:02;99461.28;;;8.53;50.88
17607;BME280;8922;52.240;20.980;2023-02-18T11:04:06;99458.97;;;8.30;51.74
17607;BME280;8922;52.240;20.980;2023-02-18T11:06:40;99474.53;;;8.15;51.80
17607;BME280;8922;52.240;20.980;2023-02-18T11:09:29;99471.25;;;8.02;53.11
17607;BME280;8922;52.240;20.980;2023-02-18T11:12:02;99460.22;;;7.94;53.39
17607;BME280;8922;52.240;20.980;2023-02-18T11:14:42;99457.78;;;7.80;54.16
17607;BME280;8922;52.240;20.980;2023-02-18T11:17:25;99445.03;;;7.74;54.81
17607;BME280;8922;52.240;20.980;2023-02-18T11:19:57;99467.28;;;7.69;55.22
17607;BME280;8922;52.240;20.980;2023-02-18T11:22:29;99466.47;;;7.65;54.26
17607;BME280;8922;52.240;20.980;2023-02-18T11:25:03;99445.13;;;7.62;54.96
17607;BME280;8922;52.240;20.980;2023-02-18T11:27:39;99440.72;;;7.81;54.62
17607;BME280;8922;52.240;20.980;2023-02-18T11:30:18;99439.63;;;7.98;54.86
17607;BME280;8922;52.240;20.980;2023-02-18T11:32:50;99440.38;;;8.11;54.25
17607;BME280;8922;52.240;20.980;2023-02-18T11:35:24;99439.34;;;8.24;53.75
17607;BME280;8922;52.240;20.980;2023-02-18T11:37:53;99432.50;;;8.27;54.02
17607;BME280;8922;52.240;20.980;2023-02-18T11:40:31;99434.19;;;8.28;53.61
17607;BME280;8922;52.240;20.980;2023-02-18T11:43:11;99429.06;;;8.24;53.44
17607;BME280;8922;52.240;20.980;2023-02-18T11:45:41;99427.28;;;8.33;52.98
17607;BME280;8922;52.240;20.980;2023-02-18T11:48:17;99416.84;;;8.48;52.24
17607;BME280;8922;52.240;20.980;2023-02-18T11:50:50;99418.44;;;8.58;53.56
17607;BME280;8922;52.240;20.980;2023-02-18T11:53:29;99429.84;;;8.99;53.44
17607;BME280;8922;52.240;20.980;2023-02-18T11:56:01;99422.66;;;9.71;50.89
17607;BME280;8922;52.240;20.980;2023-02-18T11:58:36;99413.97;;;10.20;49.45
17607;BME280;8922;52.240;20.980;2023-02-18T12:01:12;99421.34;;;10.39;48.40
17607;BME280;8922;52.240;20.980;2023-02-18T12:03:47;99401.47;;;10.46;46.67
17607;BME280;8922;52.240;20.980;2023-02-18T12:06:21;99416.28;;;10.35;47.59
17607;BME280;8922;52.240;20.980;2023-02-18T12:08:56;99402.03;;;10.17;47.51
17607;BME280;8922;52.240;20.980;2023-02-18T12:11:32;99401.34;;;10.09;48.34
17607;BME280;8922;52.240;20.980;2023-02-18T12:14:08;99420.22;;;10.08;47.71
17607;BME280;8922;52.240;20.980;2023-02-18T12:16:51;99402.09;;;10.12;47.53
17607;BME280;8922;52.240;20.980;2023-02-18T12:20:02;99409.72;;;10.20;47.34
17607;BME280;8922;52.240;20.980;2023-02-18T12:22:41;99391.69;;;10.19;48.11
17607;BME280;8922;52.240;20.980;2023-02-18T12:25:24;99403.34;;;9.93;48.16
17607;BME280;8922;52.240;20.980;2023-02-18T12:31:29;99410.34;;;9.38;49.43
17607;BME280;8922;52.240;20.980;2023-02-18T12:34:18;99391.75;;;9.23;49.77
17607;BME280;8922;52.240;20.980;2023-02-18T12:37:02;99380.81;;;9.11;49.96
17607;BME280;8922;52.240;20.980;2023-02-18T12:39:52;99377.44;;;9.08;50.13
17607;BME280;8922;52.240;20.980;2023-02-18T12:42:39;99379.06;;;9.13;50.21
17607;BME280;8922;52.240;20.980;2023-02-18T12:45:44;99382.44;;;9.15;49.56
17607;BME280;8922;52.240;20.980;2023-02-18T12:48:46;99377.34;;;9.14;49.19
17607;BME280;8922;52.240;20.980;2023-02-18T12:51:31;99370.56;;;9.08;50.10
17607;BME280;8922;52.240;20.980;2023-02-18T12:54:29;99374.03;;;9.07;49.92
17607;BME280;8922;52.240;20.980;2023-02-18T12:57:34;99368.13;;;9.02;50.37
17607;BME280;8922;52.240;20.980;2023-02-18T13:00:43;99378.31;;;9.05;49.03
17607;BME280;8922;52.240;20.980;2023-02-18T13:07:12;99369.59;;;9.15;48.83
17607;BME280;8922;52.240;20.980;2023-02-18T13:10:10;99366.31;;;9.07;49.29
17607;BME280;8922;52.240;20.980;2023-02-18T13:12:52;99356.97;;;9.02;49.71
17607;BME280;8922;52.240;20.980;2023-02-18T13:15:30;99354.56;;;8.92;50.32
17607;BME280;8922;52.240;20.980;2023-02-18T13:18:11;99358.25;;;8.75;51.15
17607;BME280;8922;52.240;20.980;2023-02-18T13:20:44;99372.16;;;8.61;51.68
17607;BME280;8922;52.240;20.980;2023-02-18T13:23:19;99357.81;;;8.46;52.79
17607;BME280;8922;52.240;20.980;2023-02-18T13:25:53;99349.38;;;8.35;53.30
17607;BME280;8922;52.240;20.980;2023-02-18T13:28:35;99349.50;;;8.26;53.16
17607;BME280;8922;52.240;20.980;2023-02-18T13:31:21;99359.94;;;8.12;53.32
17607;BME280;8922;52.240;20.980;2023-02-18T13:33:59;99351.56;;;7.98;54.06
17607;BME280;8922;52.240;20.980;2023-02-18T13:36:46;99354.28;;;7.86;54.20
17607;BME280;8922;52.240;20.980;2023-02-18T13:39:21;99355.25;;;7.77;55.19
17607;BME280;8922;52.240;20.980;2023-02-18T13:42:22;99372.44;;;7.67;54.99
17607;BME280;8922;52.240;20.980;2023-02-18T13:45:23;99370.84;;;7.57;55.36
17607;BME280;8922;52.240;20.980;2023-02-18T13:47:53;99363.19;;;7.51;56.00
17607;BME280;8922;52.240;20.980;2023-02-18T13:50:29;99367.56;;;7.44;56.41
17607;BME280;8922;52.240;20.980;2023-02-18T13:53:30;99370.16;;;7.40;56.93
17607;BME280;8922;52.240;20.980;2023-02-18T13:56:04;99359.13;;;7.33;56.65
17607;BME280;8922;52.240;20.980;2023-02-18T13:58:40;99360.00;;;7.31;57.31